Madison, Pennsylvania
Current Conditions -  °F | °C
As of 10:55 PM on Sunday 23 Nov 2014 (Local Time) from KLBE Reporting Station
Light Rain Light Rain  
Wind Chill: 54°   Ceiling: 4400
Heat Index: 54°   Visibility: 7mi
Dew Point: 50°   Wind: 22mph
Humidity: 88%   Direction: 120°ESE
Pressure: 29.59"   Gusts: 33mph
Location:  40.25°N, 79.68°W
Report Text: KLBE 240355Z AUTO 12019G29KT 7SM -RA FEW034 BKN044 OVC095 12/10 A2959 RMK AO2
Loading
Personal Weather Stations






























Interactive Weather Map New forecast layout! Learn more

10-Day Weather Forecast

Advertisements
Track Severe Weather on mobile